Data for 07/10/2015

Time Sea-Level Adjusted Pressure Absolute Pressure Temperature Relative Humidity Dew Point   
(mb) (inHg) (mb) (inHg) (C) (F) (%) (C) (F)
00:05 1015 29.97 844 24.92 17.3 63.1 52 7.3 45.2
00:10 1015 29.97 844 24.92 17.2 63 52 7.4 45.3
00:15 1014 29.94 844 24.92 17.1 62.7 53 7.5 45.5
00:20 1014 29.94 844 24.92 17 62.6 57 8.4 47.1
00:25 1014 29.94 844 24.92 17 62.6 53 7.5 45.5
00:30 1014 29.94 844 24.92 16.9 62.4 54 7.5 45.5
00:35 1015 29.97 844 24.92 16.5 61.6 52 6.7 44.1
00:40 1015 29.97 844 24.92 16.4 61.5 53 7 44.5
00:45 1015 29.97 844 24.92 16.3 61.4 53 6.8 44.2
00:50 1015 29.97 844 24.92 16.2 61.2 54 6.9 44.5
00:55 1015 29.97 844 24.92 16.1 61 54 7 44.5
01:00 1015 29.97 844 24.92 16.1 61 55 7.2 44.9
01:05 1015 29.97 844 24.92 15.9 60.7 56 7.3 45.2
01:10 1015 29.97 844 24.92 15.8 60.4 54 6.5 43.7
01:15 1015 29.97 844 24.92 15.9 60.6 55 6.9 44.4
01:20 1015 29.97 844 24.92 15.7 60.3 55 6.9 44.4
01:25 1015 29.97 844 24.92 15.7 60.3 56 7 44.6
01:30 1015 29.97 844 24.92 16 60.7 57 7.4 45.4
01:35 1015 29.97 844 24.92 16 60.9 56 7.5 45.5
01:40 1015 29.97 844 24.92 15.7 60.2 58 7.4 45.3
01:45 1015 29.97 844 24.92 15.5 59.9 58 7.2 45
01:50 1015 29.97 844 24.92 15.2 59.4 57 6.9 44.4
01:55 1015 29.97 844 24.92 15.4 59.6 57 7 44.6
02:00 1015 29.97 844 24.92 15.4 59.7 58 7.2 45
02:05 1015 29.97 844 24.92 15.5 59.8 60 7.8 46.1
02:10 1015 29.97 844 24.92 15.3 59.5 58 7.1 44.7
02:15 1015 29.97 844 24.92 15 59 60 7.3 45.2
02:20 1015 29.97 844 24.92 14.9 58.8 59 7.1 44.7
02:25 1015 29.97 844 24.92 15.1 59.2 59 7.3 45.1
02:30 1015 29.97 844 24.92 14.9 58.9 61 7.5 45.4
02:35 1015 29.97 844 24.92 14.6 58.2 60 7.1 44.7
02:40 1015 29.97 844 24.92 14.6 58.2 62 7.3 45.2
02:45 1015 29.97 844 24.92 14.3 57.7 63 7.4 45.3
02:50 1015 29.97 844 24.92 13.9 57 65 7.4 45.4
02:55 1015 29.97 844 24.92 13.9 57 61 6.6 43.9
03:00 1015 29.97 844 24.92 14.1 57.3 62 6.9 44.4
03:05 1015 29.97 844 24.92 14.2 57.6 61 6.9 44.4
03:10 1015 29.97 844 24.92 14.3 57.7 62 7.2 45
03:15 1015 29.97 844 24.92 14.1 57.4 61 6.8 44.3
03:20 1015 29.97 844 24.92 14.1 57.4 60 6.6 43.9
03:25 1015 29.97 844 24.92 14.4 57.8 58 6.3 43.3
03:30 1015 29.97 844 24.92 14.4 57.9 58 6.4 43.4
03:35 1015 29.97 844 24.92 14.3 57.7 59 6.6 43.8
03:40 1015 29.97 844 24.92 14.1 57.3 61 6.8 44.3
03:45 1015 29.97 844 24.92 13.7 56.7 62 6.7 44
03:50 1015 29.97 844 24.92 13.7 56.7 61 6.5 43.7
03:55 1015 29.97 844 24.92 13.8 56.8 62 6.6 43.9
04:00 1015 29.97 844 24.92 13.7 56.6 63 6.7 44.1
04:05 1015 29.97 844 24.92 13.4 56 64 6.7 44.1
04:10 1015 29.97 844 24.92 13.3 55.9 64 6.7 44
04:15 1015 29.97 844 24.92 13.4 56.2 64 6.8 44.3
04:20 1015 29.97 844 24.92 13.5 56.2 65 7.1 44.8
04:25 1015 29.97 844 24.92 13.4 56.1 66 7.1 44.8
04:30 1015 29.97 844 24.92 13.4 56.2 66 7.3 45.1
04:35 1015 29.97 844 24.92 13.6 56.4 65 7.2 45
04:40 1015 29.97 844 24.92 13.8 56.9 64 7.2 44.9
04:45 1015 29.97 844 24.92 14.1 57.3 63 7.2 45
04:50 1015 29.97 844 24.92 14.1 57.3 64 7.3 45.2
04:55 1015 29.97 844 24.92 14.2 57.5 63 7.2 44.9
05:00 1015 29.97 844 24.92 14.3 57.7 61 7 44.6
05:05 1015 29.97 844 24.92 14.7 58.4 59 6.8 44.3
05:10 1015 29.97 844 24.92 14.8 58.7 59 7.1 44.8
05:15 1015 29.97 844 24.92 14.9 58.8 59 7 44.6
05:20 1015 29.97 844 24.92 14.9 58.8 59 7.1 44.8
05:25 1015 29.97 844 24.92 14.9 58.9 59 7.2 44.9
05:30 1015 29.97 844 24.92 15 59 59 7 44.7
05:35 1015 29.97 844 24.92 15.1 59.1 59 7.1 44.8
05:40 1015 29.97 844 24.92 14.9 58.9 60 7.4 45.3
05:45 1015 29.97 844 24.92 14.7 58.5 61 7.3 45.2
05:50 1015 29.97 844 24.92 14.7 58.4 62 7.5 45.4
05:55 1015 29.97 844 24.92 14.7 58.4 61 7.4 45.3
06:00 1015 29.97 844 24.92 14.7 58.5 61 7.4 45.3
06:05 1015 29.97 844 24.92 14.7 58.5 62 7.5 45.5
06:10 1015 29.97 844 24.92 14.8 58.6 61 7.5 45.4
06:15 1015 29.97 844 24.92 15 58.9 60 7.3 45.2
06:20 1015 29.97 844 24.92 15.2 59.4 60 7.5 45.6
06:25 1015 29.97 844 24.92 15.4 59.7 58 7.4 45.2
06:30 1015 29.97 844 24.92 15.4 59.7 61 7.9 46.2
06:35 1015 29.97 844 24.92 15.2 59.4 62 8.1 46.6
06:40 1015 29.97 844 24.92 15.1 59.1 63 8.2 46.8
06:45 1015 29.97 844 24.92 15 59 62 8 46.3
06:50 1015 29.97 844 24.92 15.1 59.2 62 8 46.4
06:55 1015 29.97 844 24.92 15.4 59.8 60 7.8 46
07:00 1015 29.97 844 24.92 15.7 60.2 62 8.4 47.1
07:05 1015 29.97 844 24.92 15.9 60.6 60 8.1 46.6
07:10 1015 29.97 844 24.92 16 60.8 60 8.2 46.8
07:15 1015 29.97 844 24.92 16.1 61 60 8.4 47
07:20 1015 29.97 844 24.92 16.3 61.4 58 8 46.5
07:25 1015 29.97 844 24.92 16.5 61.7 56 7.9 46.2
07:30 1015 29.97 844 24.92 16.7 62.1 57 8.2 46.8
07:35 1015 29.97 844 24.92 16.9 62.3 55 7.9 46.2
07:40 1015 29.97 844 24.92 17 62.6 55 8 46.4
07:45 1015 29.97 844 24.92 17.2 63 54 8 46.5
07:50 1015 29.97 844 24.92 17.5 63.4 53 8 46.3
07:55 1015 29.97 844 24.92 17.4 63.4 54 8.2 46.7
08:00 1015 29.97 844 24.92 17.6 63.6 52 7.8 46
08:05 1015 29.97 844 24.92 17.7 63.9 52 7.9 46.2
08:10 1015 29.97 844 24.92 17.9 64.2 53 8.2 46.7
08:15 1015 29.97 844 24.92 18.1 64.5 51 7.8 46.1
08:20 1015 29.97 844 24.92 18.1 64.6 52 8.3 46.9
08:25 1015 29.97 844 24.92 18.4 65 51 8.1 46.5
08:30 1015 29.97 844 24.92 18.7 65.6 49 7.9 46.2
08:35 1015 29.97 844 24.92 19.3 66.7 47 7.8 46.1
08:40 1015 29.97 844 24.92 20 67.9 47 8.4 47.1
08:45 1015 29.97 844 24.92 20 68 47 8.4 47.1
08:50 1015 29.97 844 24.92 19.4 66.9 47 8 46.3
08:55 1015 29.97 844 24.92 19.4 66.9 47 8 46.4
09:00 1015 29.97 844 24.92 19.6 67.3 48 8.4 47.1
09:05 1015 29.97 844 24.92 19.7 67.4 46 7.7 45.9
09:10 1015 29.97 844 24.92 19.8 67.7 45 7.7 45.8
09:15 1015 29.97 844 24.92 20.5 68.8 43 7.6 45.7
09:20 1015 29.97 844 24.92 20.8 69.4 43 8 46.4
09:25 1015 29.97 844 24.92 21 69.8 43 8.1 46.7
09:30 1015 29.97 844 24.92 21.2 70.1 41 7.7 45.8
09:35 1015 29.97 844 24.92 21.7 71 40 7.5 45.5
09:40 1015 29.97 844 24.92 22.5 72.4 37 7.4 45.3
09:45 1015 29.97 844 24.92 22.9 73.1 35 6.6 43.9
09:50 1015 29.97 844 24.92 23.4 74.1 33 6.6 44
09:55 1015 29.97 844 24.92 23.8 74.9 35 7.6 45.7
10:00 1015 29.97 844 24.92 23.7 74.7 34 7 44.5
10:05 1015 29.97 844 24.92 23.6 74.4 35 7.5 45.5
10:10 1015 29.97 844 24.92 24.4 75.8 34 7.6 45.6
10:15 1015 29.97 844 24.92 24.4 75.8 32 6.9 44.5
10:20 1015 29.97 844 24.92 24.9 76.7 33 7.5 45.6
10:25 1015 29.97 844 24.92 25.5 77.9 33 8.1 46.6
10:30 1015 29.97 844 24.92 24.3 75.7 35 8.1 46.5
10:35 1015 29.97 844 24.92 25 76.9 32 7.5 45.6
10:40 1014 29.94 844 24.92 25.7 78.3 31 7.5 45.5
10:45 1014 29.94 844 24.92 25.9 78.7 30 7.4 45.3
10:50 1014 29.94 844 24.92 25.2 77.4 33 8.2 46.7
10:55 1014 29.94 844 24.92 24.9 76.9 33 7.6 45.7
11:00 1014 29.94 844 24.92 24.6 76.3 34 8 46.4
11:05 1014 29.94 844 24.92 24.2 75.5 32 6.5 43.7
11:10 1014 29.94 844 24.92 24.8 76.6 30 6.4 43.5
11:15 1014 29.94 844 24.92 26 78.7 28 6.3 43.4
11:20 1014 29.94 843 24.89 25.9 78.6 28 6.2 43.2
11:25 1014 29.94 843 24.89 25.5 77.8 28 5.8 42.4
11:30 1014 29.94 843 24.89 25.8 78.4 27 5.7 42.3
11:35 1014 29.94 843 24.89 26.5 79.8 26 6 42.8
11:40 1014 29.94 843 24.89 26.3 79.3 27 5.9 42.6
11:45 1014 29.94 843 24.89 26.8 80.3 26 6.3 43.3
11:50 1014 29.94 843 24.89 26.1 79 27 6.2 43.1
11:55 1014 29.94 843 24.89 26.6 79.8 26 5.8 42.5
12:00 1014 29.94 843 24.89 27.5 81.5 25 6.2 43.2
12:05 1014 29.94 843 24.89 27.8 82 24 5.9 42.7
12:10 1014 29.94 843 24.89 27.8 82.1 24 6 42.7
12:15 1014 29.94 843 24.89 27.1 80.8 25 6 42.7
12:20 1014 29.94 843 24.89 26.4 79.6 26 5.8 42.4
12:25 1014 29.94 843 24.89 25.7 78.3 28 5.9 42.7
12:30 1014 29.94 843 24.89 25.6 78.1 28 5.9 42.5
12:35 1014 29.94 843 24.89 26.1 79 28 6.6 43.9
12:40 1014 29.94 843 24.89 26 78.7 28 6.2 43.2
12:45 1014 29.94 843 24.89 25.4 77.6 29 6.5 43.7
12:50 1014 29.94 843 24.89 25.4 77.6 29 6.2 43.1
12:55 1014 29.94 844 24.92 25.1 77.2 32 7.7 45.8
13:00 1014 29.94 844 24.92 22.7 72.9 37 7.3 45.2
13:05 1015 29.97 844 24.92 21.5 70.8 39 7.2 45
13:10 1015 29.97 844 24.92 21 69.7 40 7.2 44.9
13:15 1015 29.97 844 24.92 20.6 69.1 44 8.1 46.6
13:20 1015 29.97 844 24.92 19.9 67.7 52 9.8 49.6
13:25 1015 29.97 844 24.92 19.2 66.5 53 9.4 48.9
13:30 1015 29.97 844 24.92 18.7 65.6 53 8.9 48
13:35 1015 29.97 844 24.92 18.5 65.3 52 8.6 47.5
13:40 1015 29.97 844 24.92 18.3 65 56 9.6 49.3
13:45 1015 29.97 844 24.92 18 64.4 55 8.9 48
13:50 1015 29.97 844 24.92 18 64.4 54 8.6 47.5
13:55 1015 29.97 844 24.92 18.2 64.7 52 8.3 46.9
14:00 1015 29.97 844 24.92 18 64.5 56 9.2 48.6
14:05 1015 29.97 844 24.92 17.5 63.6 60 9.8 49.7
14:10 1015 29.97 844 24.92 17.3 63.1 62 9.9 49.9
14:15 1015 29.97 844 24.92 17.7 63.8 53 8.1 46.6
14:20 1015 29.97 844 24.92 18.3 65 57 9.9 49.8
14:25 1015 29.97 844 24.92 18.1 64.5 59 10 50
14:30 1015 29.97 844 24.92 18 64.3 60 10.2 50.4
14:35 1015 29.97 844 24.92 18 64.5 57 9.6 49.3
14:40 1015 29.97 844 24.92 18.4 65.1 56 9.7 49.4
14:45 1015 29.97 844 24.92 19.1 66.4 54 9.7 49.5
14:50 1015 29.97 844 24.92 19.7 67.4 52 9.6 49.3
14:55 1015 29.97 844 24.92 20.2 68.4 46 8.4 47.1
15:00 1015 29.97 845 24.95 20.4 68.7 45 8.2 46.8
15:05 1015 29.97 845 24.95 20.6 69.1 42 7.6 45.6
15:10 1016 30 845 24.95 20.7 69.3 40 6.8 44.2
15:15 1016 30 845 24.95 20.8 69.4 40 7 44.5
15:20 1016 30 845 24.95 21 69.9 43 8.2 46.7
15:25 1016 30 845 24.95 20.5 68.9 45 8.3 47
15:30 1016 30 845 24.95 20.3 68.6 45 8.3 46.9
15:35 1016 30 845 24.95 20.2 68.3 47 8.7 47.6
15:40 1016 30 845 24.95 19.8 67.6 49 8.8 47.9
15:45 1016 30 845 24.95 19.4 66.9 50 8.8 47.8
15:50 1016 30 845 24.95 19.1 66.3 52 9 48.1
15:55 1016 30 845 24.95 18.9 66.1 53 9.3 48.8
16:00 1016 30 845 24.95 18.8 65.8 55 9.6 49.2
16:05 1016 30 845 24.95 18.7 65.6 54 9.4 49
16:10 1016 30 845 24.95 18.9 65.9 55 9.8 49.7
16:15 1016 30 845 24.95 18.7 65.6 57 10 50.1
16:20 1016 30 845 24.95 18.4 65.2 58 10 50.1
16:25 1016 30 845 24.95 18.3 64.9 59 10.2 50.3
16:30 1016 30 845 24.95 18.3 64.9 60 10.4 50.8
16:35 1016 30 845 24.95 18.3 65 60 10.4 50.8
16:40 1016 30 845 24.95 18.3 65 59 10.3 50.5
16:45 1016 30 845 24.95 18.3 65 59 10.2 50.4
16:50 1016 30 845 24.95 18.4 65 58 10.2 50.3
16:55 1016 30 845 24.95 18.5 65.2 59 10.5 50.8
17:00 1016 30 845 24.95 18.4 65.2 61 10.8 51.5
17:05 1016 30 845 24.95 18.4 65 62 11.1 51.9
17:10 1015 29.97 845 24.95 18.3 64.9 63 11.3 52.4
17:15 1015 29.97 845 24.95 18.1 64.5 64 11.2 52.2
17:20 1015 29.97 845 24.95 17.8 64 65 11.1 52
17:25 1015 29.97 845 24.95 17.5 63.5 66 11.2 52.1
17:30 1015 29.97 844 24.92 17.3 63.1 66 11 51.8
17:35 1015 29.97 844 24.92 17.2 62.9 68 11.2 52.2
17:40 1015 29.97 844 24.92 17 62.6 68 11.2 52.2
17:45 1015 29.97 844 24.92 16.9 62.4 67 10.8 51.5
17:50 1015 29.97 844 24.92 17 62.5 66 10.7 51.3
17:55 1015 29.97 844 24.92 17.1 62.7 65 10.6 51.1
18:00 1015 29.97 844 24.92 17 62.6 65 10.5 50.8
18:05 1015 29.97 844 24.92 17 62.6 64 10.3 50.6
18:10 1015 29.97 844 24.92 17.1 62.7 63 10.2 50.3
18:15 1015 29.97 844 24.92 17.1 62.8 63 10.2 50.3
18:20 1015 29.97 844 24.92 17.1 62.8 63 10.2 50.4
18:25 1015 29.97 844 24.92 17.2 62.9 62 10 50
18:30 1015 29.97 844 24.92 17.2 63 62 10 50
18:35 1015 29.97 844 24.92 17.3 63.1 62 9.9 49.9
18:40 1015 29.97 844 24.92 17.3 63.1 61 9.8 49.7
18:45 1015 29.97 844 24.92 17.4 63.3 61 9.8 49.6
18:50 1015 29.97 844 24.92 17.4 63.3 60 9.7 49.5
18:55 1015 29.97 844 24.92 17.4 63.3 60 9.6 49.3
19:00 1015 29.97 844 24.92 17.3 63.2 60 9.6 49.2
19:05 1015 29.97 844 24.92 17.2 63 59 9.3 48.8
19:10 1015 29.97 844 24.92 17.4 63.3 59 9.3 48.8
19:15 1015 29.97 844 24.92 17.4 63.4 58 9.1 48.4
19:20 1015 29.97 844 24.92 17.5 63.4 59 9.3 48.8
19:25 1015 29.97 844 24.92 17.5 63.4 58 9.3 48.7
19:30 1015 29.97 844 24.92 17.5 63.5 59 9.5 49
19:35 1015 29.97 844 24.92 17.5 63.5 58 9.3 48.8
19:40 1015 29.97 844 24.92 17.5 63.4 59 9.4 48.9
19:45 1015 29.97 844 24.92 17.4 63.4 58 9.1 48.4
19:50 1015 29.97 844 24.92 17.4 63.3 57 9 48.2
19:55 1015 29.97 844 24.92 17.4 63.3 57 9 48.1
20:00 1015 29.97 844 24.92 17.4 63.3 58 9.1 48.4
20:05 1015 29.97 844 24.92 17.4 63.4 59 9.3 48.8
20:10 1015 29.97 845 24.95 17.4 63.4 60 9.6 49.2
20:15 1015 29.97 844 24.92 17.3 63.2 60 9.7 49.4
20:20 1015 29.97 844 24.92 17.2 63 59 9.1 48.4
20:25 1015 29.97 845 24.95 17.2 63 58 9.1 48.3
20:30 1015 29.97 845 24.95 17.1 62.8 59 9.2 48.6
20:35 1015 29.97 845 24.95 17.1 62.8 59 9.1 48.4
20:40 1015 29.97 845 24.95 17 62.7 60 9.2 48.5
20:45 1016 30 845 24.95 17 62.6 60 9.2 48.5
20:50 1016 30 845 24.95 17 62.5 60 9.2 48.6
20:55 1016 30 845 24.95 16.9 62.4 60 9.2 48.6
21:00 1016 30 845 24.95 16.8 62.2 60 9.1 48.5
21:05 1016 30 845 24.95 16.7 62.1 60 9.1 48.5
21:10 1016 30 845 24.95 16.7 62 61 9.3 48.7
21:15 1016 30 845 24.95 16.6 61.9 61 9.2 48.6
21:20 1016 30 845 24.95 16.6 61.9 61 9.1 48.4
21:25 1016 30 845 24.95 16.7 62 61 9.2 48.6
21:30 1016 30 845 24.95 16.7 62 61 9.3 48.7
21:35 1016 30 845 24.95 16.7 62 61 9.3 48.7
21:40 1016 30 845 24.95 16.7 62 62 9.3 48.8
21:45 1016 30 845 24.95 16.6 61.8 62 9.4 49
21:50 1016 30 845 24.95 16.4 61.6 63 9.4 48.8
21:55 1016 30 845 24.95 16.4 61.5 63 9.4 49
22:00 1016 30 845 24.95 16.3 61.4 63 9.4 48.9
22:05 1016 30 845 24.95 16.3 61.3 64 9.5 49
22:10 1016 30 845 24.95 16.2 61.2 64 9.4 48.9
22:15 1016 30 845 24.95 16.2 61.1 64 9.4 49
22:20 1016 30 845 24.95 16.2 61.1 64 9.5 49.1
22:25 1016 30 845 24.95 16.1 60.9 64 9.4 49
22:30 1016 30 845 24.95 16 60.9 65 9.6 49.2
22:35 1016 30 845 24.95 16 60.7 65 9.5 49.1
22:40 1016 30 845 24.95 16 60.7 66 9.6 49.4
22:45 1016 30 845 24.95 15.9 60.7 68 10.2 50.3
22:50 1016 30 845 24.95 16 60.8 66 9.6 49.3
22:55 1016 30 845 24.95 15.9 60.6 66 9.7 49.4
23:00 1016 30 845 24.95 15.8 60.4 67 9.8 49.7
23:05 1016 30 845 24.95 15.6 60.1 68 9.7 49.5
23:10 1016 30 845 24.95 15.6 60.1 68 9.7 49.5
23:15 1016 30 845 24.95 15.6 60 68 9.7 49.5
23:20 1016 30 845 24.95 15.6 60.1 68 9.7 49.5
23:25 1016 30 845 24.95 15.8 60.5 68 10.1 50.1
23:30 1016 30 845 24.95 16 60.7 68 10 50.1
23:35 1016 30 845 24.95 16 60.7 67 9.8 49.7
23:40 1016 30 845 24.95 15.9 60.6 66 9.7 49.4
23:45 1016 30 845 24.95 15.7 60.3 69 10 50.1
23:50 1016 30 845 24.95 15.6 60.1 69 10.1 50.1
23:55 1016 30 845 24.95 15.5 59.9 69 9.9 49.9
24:00 1016 30 845 24.95 15.4 59.7 71 10.2 50.4